Time;durP1;ratioP1;P1;durP2;ratioP2;P2;SDS_P1;SDS_P2;PMS_P1;PMS_P2;Temp;Humidity;BMP_temperature;BMP_pressure;BME280_temperature;BME280_humidity;BME280_pressure;Samples;Min_cycle;Max_cycle;Signal;HPM_P1;HPM_P2
2022/08/18 00:00:37;;;;;;;44.00;30.58;;;;;;;;;;5053810;28;20052;-70
2022/08/18 00:03:05;;;;;;;43.15;30.65;;;;;;;;;;5053882;28;20058;-70
2022/08/18 00:05:31;;;;;;;40.83;28.65;;;;;;;;;;5053750;28;20050;-69
2022/08/18 00:07:58;;;;;;;46.78;30.17;;;;;;;;;;5053805;28;20489;-69
2022/08/18 00:10:24;;;;;;;45.72;31.65;;;;;;;;;;5053736;28;20021;-72
2022/08/18 00:12:50;;;;;;;45.10;31.05;;;;;;;;;;5053733;28;20473;-72
2022/08/18 00:15:17;;;;;;;43.38;31.60;;;;;;;;;;5053670;28;20039;-71
2022/08/18 00:17:43;;;;;;;46.67;30.60;;;;;;;;;;5054151;28;20044;-71
2022/08/18 00:20:11;;;;;;;45.03;31.25;;;;;;;;;;5053577;28;20025;-70
2022/08/18 00:22:38;;;;;;;42.28;30.13;;;;;;;;;;5053819;28;20109;-70
2022/08/18 00:25:05;;;;;;;42.80;29.95;;;;;;;;;;5053432;28;20032;-71
2022/08/18 00:27:31;;;;;;;46.55;31.30;;;;;;;;;;5053472;28;20035;-71
2022/08/18 00:29:59;;;;;;;47.58;31.10;;;;;;;;;;5053457;28;20027;-70
2022/08/18 00:32:27;;;;;;;43.90;31.88;;;;;;;;;;5053416;28;20442;-72
2022/08/18 00:34:53;;;;;;;44.13;29.88;;;;;;;;;;5035427;28;20031;-73
2022/08/18 00:37:20;;;;;;;42.90;29.50;;;;;;;;;;5035465;28;20456;-70
2022/08/18 00:39:46;;;;;;;46.42;30.13;;;;;;;;;;5053297;28;20025;-70
2022/08/18 00:42:24;;;;;;;44.53;29.83;;;;;;;;;;5053560;28;20025;-71
2022/08/18 00:44:50;;;;;;;41.03;28.88;;;;;;;;;;5053779;28;20029;-70
2022/08/18 00:47:16;;;;;;;42.42;29.80;;;;;;;;;;5053947;28;20040;-70
2022/08/18 00:49:44;;;;;;;45.45;29.27;;;;;;;;;;5053166;28;20029;-70
2022/08/18 00:52:13;;;;;;;43.63;30.75;;;;;;;;;;5052928;28;20469;-69
2022/08/18 00:54:40;;;;;;;42.42;29.85;;;;;;;;;;5053102;28;20082;-69
2022/08/18 00:57:07;;;;;;;37.17;28.65;;;;;;;;;;5053122;28;20028;-70
2022/08/18 00:59:33;;;;;;;38.42;28.30;;;;;;;;;;5053072;28;20025;-68
2022/08/18 01:02:01;;;;;;;38.33;29.05;;;;;;;;;;5053245;28;20096;-70
2022/08/18 01:04:35;;;;;;;42.70;29.88;;;;;;;;;;5052916;28;20087;-69
2022/08/18 01:07:04;;;;;;;41.45;28.17;;;;;;;;;;5034899;28;20021;-72
2022/08/18 01:09:30;;;;;;;43.72;29.35;;;;;;;;;;5052964;28;20025;-69
2022/08/18 01:11:56;;;;;;;40.38;29.25;;;;;;;;;;5052974;28;20090;-69
2022/08/18 01:14:22;;;;;;;39.80;28.65;;;;;;;;;;5052945;28;20473;-70
2022/08/18 01:22:25;;;;;;;40.03;28.20;;;;;;;;;;5053199;28;20044;-70
2022/08/18 01:27:36;;;;;;;38.65;27.88;;;;;;;;;;5053163;28;20068;-69
2022/08/18 01:30:09;;;;;;;42.45;29.55;;;;;;;;;;5052788;28;20541;-71
2022/08/18 01:32:35;;;;;;;39.58;29.00;;;;;;;;;;5053048;28;20025;-70
2022/08/18 01:35:01;;;;;;;40.30;28.48;;;;;;;;;;5053003;28;20036;-71
2022/08/18 01:37:28;;;;;;;37.78;28.20;;;;;;;;;;5052791;28;20117;-71
2022/08/18 01:39:54;;;;;;;41.35;29.38;;;;;;;;;;5052998;28;20461;-70
2022/08/18 01:42:21;;;;;;;39.58;29.70;;;;;;;;;;5052933;28;20025;-73
2022/08/18 01:44:50;;;;;;;41.05;29.35;;;;;;;;;;5052603;28;20021;-71
2022/08/18 01:47:17;;;;;;;44.53;29.95;;;;;;;;;;5053403;28;20112;-70
2022/08/18 01:49:43;;;;;;;40.55;29.38;;;;;;;;;;5052627;28;20070;-70
2022/08/18 01:52:11;;;;;;;44.95;31.17;;;;;;;;;;5052855;28;20103;-68
2022/08/18 01:54:38;;;;;;;42.15;29.02;;;;;;;;;;5052335;28;20047;-72
2022/08/18 01:57:04;;;;;;;41.35;29.25;;;;;;;;;;5052531;28;20079;-70
2022/08/18 01:59:30;;;;;;;37.80;27.08;;;;;;;;;;5052552;28;20021;-69
2022/08/18 02:01:57;;;;;;;38.83;28.50;;;;;;;;;;5052432;28;20025;-71
2022/08/18 02:04:28;;;;;;;42.65;28.27;;;;;;;;;;5053400;28;20047;-69
2022/08/18 02:06:54;;;;;;;39.55;27.83;;;;;;;;;;5056641;28;20104;-70
2022/08/18 02:09:21;;;;;;;38.75;28.25;;;;;;;;;;5056100;28;20384;-69
2022/08/18 02:11:47;;;;;;;41.30;30.02;;;;;;;;;;5056026;28;20055;-69
2022/08/18 02:14:13;;;;;;;36.70;26.77;;;;;;;;;;5056227;28;20427;-69
2022/08/18 02:16:39;;;;;;;39.88;28.40;;;;;;;;;;5055955;28;20025;-71
2022/08/18 02:19:05;;;;;;;39.75;29.30;;;;;;;;;;5055904;28;20091;-70
2022/08/18 02:21:31;;;;;;;38.00;27.83;;;;;;;;;;5037963;28;20371;-69
2022/08/18 02:23:57;;;;;;;40.75;28.02;;;;;;;;;;5055833;28;20021;-70
2022/08/18 02:26:23;;;;;;;37.15;27.83;;;;;;;;;;5055663;28;20550;-72
2022/08/18 02:28:49;;;;;;;40.53;28.67;;;;;;;;;;5055688;28;20013;-70
2022/08/18 02:31:17;;;;;;;35.80;26.15;;;;;;;;;;5055651;28;20412;-70
2022/08/18 02:33:44;;;;;;;39.13;28.40;;;;;;;;;;5055597;28;20473;-70
2022/08/18 02:36:11;;;;;;;39.22;27.90;;;;;;;;;;5055599;28;20078;-70
2022/08/18 02:38:37;;;;;;;38.55;27.83;;;;;;;;;;5037624;28;20055;-70
2022/08/18 02:41:05;;;;;;;37.72;27.00;;;;;;;;;;5055462;28;20094;-70
2022/08/18 02:43:31;;;;;;;34.85;25.60;;;;;;;;;;5055460;28;20021;-70
2022/08/18 02:45:58;;;;;;;36.95;27.50;;;;;;;;;;5055846;28;20029;-68
2022/08/18 02:48:33;;;;;;;40.92;28.33;;;;;;;;;;5037209;28;20112;-71
2022/08/18 02:51:04;;;;;;;37.08;26.75;;;;;;;;;;5055920;28;20025;-71
2022/08/18 02:53:29;;;;;;;;;;;;;;;;;;5055623;28;20385;-71
2022/08/18 02:55:56;;;;;;;37.10;26.58;;;;;;;;;;5066761;28;19922;-72
2022/08/18 02:58:23;;;;;;;37.22;27.42;;;;;;;;;;5075013;28;20468;-70
2022/08/18 03:00:49;;;;;;;35.90;26.80;;;;;;;;;;5075038;28;20416;-71
2022/08/18 03:03:15;;;;;;;42.65;28.38;;;;;;;;;;5075042;28;20056;-69
2022/08/18 03:05:41;;;;;;;33.75;25.90;;;;;;;;;;5074974;28;20028;-71
2022/08/18 03:08:09;;;;;;;39.42;27.83;;;;;;;;;;5074999;28;20098;-69
2022/08/18 03:10:35;;;;;;;35.10;26.65;;;;;;;;;;5074986;28;20070;-70
2022/08/18 03:13:02;;;;;;;39.42;28.42;;;;;;;;;;5075200;28;20024;-70
2022/08/18 03:15:28;;;;;;;39.10;28.70;;;;;;;;;;5074765;28;20461;-71
2022/08/18 03:17:55;;;;;;;37.88;27.60;;;;;;;;;;5074804;28;20035;-69
2022/08/18 03:20:21;;;;;;;37.67;28.40;;;;;;;;;;5074780;28;20469;-70
2022/08/18 03:22:47;;;;;;;39.65;28.13;;;;;;;;;;5074713;28;20024;-70
2022/08/18 03:25:13;;;;;;;39.92;28.00;;;;;;;;;;5074595;28;20025;-70
2022/08/18 03:27:39;;;;;;;36.80;26.23;;;;;;;;;;5074591;28;20388;-71
2022/08/18 03:30:06;;;;;;;34.35;25.38;;;;;;;;;;5074528;28;20017;-69
2022/08/18 03:32:32;;;;;;;37.17;26.20;;;;;;;;;;5075038;28;20085;-70
2022/08/18 03:34:58;;;;;;;37.67;27.92;;;;;;;;;;5074411;28;20024;-71
2022/08/18 03:37:24;;;;;;;38.92;26.80;;;;;;;;;;5074720;28;20412;-71
2022/08/18 03:39:51;;;;;;;39.20;25.90;;;;;;;;;;5074390;28;20021;-71
2022/08/18 03:42:17;;;;;;;33.53;25.15;;;;;;;;;;5074309;28;20472;-69
2022/08/18 03:44:43;;;;;;;39.20;27.92;;;;;;;;;;5074121;28;20060;-70
2022/08/18 03:47:10;;;;;;;36.47;27.33;;;;;;;;;;5074935;28;20104;-70
2022/08/18 03:49:37;;;;;;;37.50;27.35;;;;;;;;;;5074146;28;20544;-70
2022/08/18 03:52:04;;;;;;;37.33;26.92;;;;;;;;;;5074119;28;20024;-70
2022/08/18 03:54:33;;;;;;;37.92;27.40;;;;;;;;;;5069090;28;20045;-71
2022/08/18 03:56:59;;;;;;;37.28;26.90;;;;;;;;;;5054340;28;20021;-69
2022/08/18 03:59:26;;;;;;;35.83;26.50;;;;;;;;;;5054015;28;20063;-70
2022/08/18 04:01:53;;;;;;;33.15;25.00;;;;;;;;;;5054167;28;20052;-69
2022/08/18 04:04:21;;;;;;;34.78;26.15;;;;;;;;;;5053857;28;20389;-69
2022/08/18 04:06:49;;;;;;;38.83;27.17;;;;;;;;;;5036022;28;20032;-71
2022/08/18 04:09:15;;;;;;;35.50;25.58;;;;;;;;;;5035917;28;20021;-71
2022/08/18 04:11:42;;;;;;;37.42;26.70;;;;;;;;;;5053748;28;20024;-69
2022/08/18 04:14:08;;;;;;;34.80;24.92;;;;;;;;;;5053733;28;20021;-71
2022/08/18 04:16:35;;;;;;;35.85;25.52;;;;;;;;;;5053679;28;20028;-70
2022/08/18 04:19:02;;;;;;;35.42;25.27;;;;;;;;;;5035783;28;20024;-70
2022/08/18 04:21:33;;;;;;;36.92;25.02;;;;;;;;;;5053912;28;20121;-69
2022/08/18 04:24:06;;;;;;;38.20;25.30;;;;;;;;;;5053645;28;20024;-69
2022/08/18 04:26:33;;;;;;;35.38;25.77;;;;;;;;;;5035452;28;20564;-68
2022/08/18 04:29:00;;;;;;;37.65;26.75;;;;;;;;;;5053057;28;20028;-71
2022/08/18 04:31:27;;;;;;;35.00;25.88;;;;;;;;;;5053475;28;20033;-70
2022/08/18 04:33:53;;;;;;;40.38;26.35;;;;;;;;;;5053953;28;20076;-71
2022/08/18 04:36:19;;;;;;;36.03;24.77;;;;;;;;;;5053388;28;20021;-71
2022/08/18 04:38:45;;;;;;;37.05;26.30;;;;;;;;;;5053587;28;20033;-69
2022/08/18 04:41:12;;;;;;;38.47;26.05;;;;;;;;;;5053364;28;20029;-70
2022/08/18 04:43:38;;;;;;;35.78;23.88;;;;;;;;;;5053552;28;20028;-70
2022/08/18 04:46:05;;;;;;;35.22;25.10;;;;;;;;;;5053413;28;20040;-70
2022/08/18 04:48:36;;;;;;;40.47;26.58;;;;;;;;;;5054055;28;20059;-71
2022/08/18 04:51:06;;;;;;;40.35;23.77;;;;;;;;;;5053248;28;20104;-70
2022/08/18 04:53:44;;;;;;;35.88;24.85;;;;;;;;;;5053444;28;20049;-70
2022/08/18 04:56:27;;;;;;;34.97;25.83;;;;;;;;;;5053565;28;20056;-69
2022/08/18 04:58:57;;;;;;;36.70;25.25;;;;;;;;;;5053721;28;20107;-69
2022/08/18 05:01:23;;;;;;;;;;;;;;;;;;5053568;28;20036;-70
2022/08/18 05:03:50;;;;;;;36.13;24.48;;;;;;;;;;5053131;28;19904;-70
2022/08/18 05:06:16;;;;;;;34.22;24.23;;;;;;;;;;5052982;28;20029;-70
2022/08/18 05:08:42;;;;;;;36.47;25.80;;;;;;;;;;5053632;28;20040;-72
2022/08/18 05:11:08;;;;;;;31.92;24.08;;;;;;;;;;5035157;28;20029;-70
2022/08/18 05:13:34;;;;;;;32.28;24.30;;;;;;;;;;5052967;28;20017;-69
2022/08/18 05:16:02;;;;;;;36.42;25.80;;;;;;;;;;5052985;28;20389;-71
2022/08/18 05:18:29;;;;;;;37.05;25.42;;;;;;;;;;5052980;28;20021;-69
2022/08/18 05:20:55;;;;;;;33.78;23.63;;;;;;;;;;5052905;28;20032;-69
2022/08/18 05:23:22;;;;;;;35.65;25.58;;;;;;;;;;5052902;28;20017;-70
2022/08/18 05:25:48;;;;;;;38.00;25.13;;;;;;;;;;5053073;28;20104;-70
2022/08/18 05:28:14;;;;;;;32.75;23.48;;;;;;;;;;5052828;28;20018;-71
2022/08/18 05:30:41;;;;;;;32.00;23.55;;;;;;;;;;5053076;28;20470;-72
2022/08/18 05:33:09;;;;;;;31.92;23.48;;;;;;;;;;5052750;28;20024;-71
2022/08/18 05:36:02;;;;;;;33.67;23.60;;;;;;;;;;5053045;28;20028;-71
2022/08/18 05:38:41;;;;;;;37.38;24.50;;;;;;;;;;5053342;28;20017;-69
2022/08/18 05:41:07;;;;;;;38.75;25.95;;;;;;;;;;5055951;28;20027;-70
2022/08/18 05:43:33;;;;;;;36.58;25.88;;;;;;;;;;5056579;28;20025;-71
2022/08/18 05:46:00;;;;;;;33.25;24.33;;;;;;;;;;5056700;28;20453;-70
2022/08/18 05:48:27;;;;;;;35.05;25.45;;;;;;;;;;5057225;28;20501;-70
2022/08/18 05:50:54;;;;;;;38.40;25.27;;;;;;;;;;5056753;28;20419;-71
2022/08/18 05:56:45;;;;;;;37.50;25.20;;;;;;;;;;5056416;28;20057;-72
2022/08/18 05:58:54;;;;;;;38.15;25.63;;;;;;;;;;5056371;28;20606;-70
2022/08/18 06:01:25;;;;;;;35.75;24.08;;;;;;;;;;5056287;28;20025;-72
2022/08/18 06:04:01;;;;;;;34.65;23.10;;;;;;;;;;5056527;28;20029;-71
2022/08/18 06:06:29;;;;;;;37.47;26.42;;;;;;;;;;5056380;28;20025;-70
2022/08/18 06:09:13;;;;;;;34.08;23.40;;;;;;;;;;5056400;28;20063;-68
2022/08/18 06:11:39;;;;;;;30.60;20.98;;;;;;;;;;5056356;28;20465;-71
2022/08/18 06:14:05;;;;;;;32.13;22.42;;;;;;;;;;5038132;28;20025;-71
2022/08/18 06:16:37;;;;;;;29.77;22.35;;;;;;;;;;5056240;28;20116;-69
2022/08/18 06:19:03;;;;;;;32.53;23.35;;;;;;;;;;5055927;28;20103;-71
2022/08/18 06:21:32;;;;;;;30.67;22.00;;;;;;;;;;5055877;28;20102;-70
2022/08/18 06:24:17;;;;;;;30.85;21.35;;;;;;;;;;5056082;28;20051;-70
2022/08/18 06:26:49;;;;;;;31.25;22.17;;;;;;;;;;5056020;28;20488;-70
2022/08/18 06:29:15;;;;;;;32.00;21.90;;;;;;;;;;5037878;28;20028;-70
2022/08/18 06:32:14;;;;;;;32.47;22.42;;;;;;;;;;5055684;28;20552;-71
2022/08/18 06:35:00;;;;;;;35.55;23.38;;;;;;;;;;5022535;28;20086;-69
2022/08/18 06:37:30;;;;;;;33.70;23.15;;;;;;;;;;5055915;28;20100;-71
2022/08/18 06:39:57;;;;;;;29.45;21.83;;;;;;;;;;5055800;28;20018;-69
2022/08/18 06:42:30;;;;;;;34.28;23.33;;;;;;;;;;5037596;28;20032;-71
2022/08/18 06:45:06;;;;;;;29.98;22.23;;;;;;;;;;5055400;28;20389;-70
2022/08/18 06:47:52;;;;;;;30.30;21.65;;;;;;;;;;5056738;28;20017;-72
2022/08/18 06:50:33;;;;;;;32.38;22.60;;;;;;;;;;5055230;28;20155;-68
2022/08/18 06:53:04;;;;;;;30.70;20.73;;;;;;;;;;5055249;28;20017;-70
2022/08/18 06:55:41;;;;;;;30.52;20.45;;;;;;;;;;5055268;28;20060;-73
2022/08/18 06:58:07;;;;;;;25.67;19.95;;;;;;;;;;5055537;28;20147;-70
2022/08/18 07:00:35;;;;;;;28.88;20.60;;;;;;;;;;5055057;28;20079;-71
2022/08/18 07:03:06;;;;;;;31.02;22.98;;;;;;;;;;5055105;28;20385;-71
2022/08/18 07:05:34;;;;;;;29.65;20.27;;;;;;;;;;5055249;28;20491;-70
2022/08/18 07:08:09;;;;;;;31.27;22.48;;;;;;;;;;5055004;28;20385;-71
2022/08/18 07:10:38;;;;;;;33.20;21.83;;;;;;;;;;5055280;28;20032;-70
2022/08/18 07:13:30;;;;;;;30.67;21.50;;;;;;;;;;5055431;28;20021;-70
2022/08/18 07:16:14;;;;;;;30.30;21.80;;;;;;;;;;5052040;28;20051;-70
2022/08/18 07:18:40;;;;;;;31.77;21.73;;;;;;;;;;5055096;28;20025;-69
2022/08/18 07:21:06;;;;;;;28.75;21.33;;;;;;;;;;5054736;28;20056;-71
2022/08/18 07:23:39;;;;;;;31.38;19.83;;;;;;;;;;5054973;28;20033;-69
2022/08/18 07:26:08;;;;;;;28.83;19.33;;;;;;;;;;5054860;28;20056;-72
2022/08/18 07:28:37;;;;;;;26.02;19.50;;;;;;;;;;5054586;28;20025;-72
2022/08/18 07:31:18;;;;;;;27.77;18.25;;;;;;;;;;5054791;28;20075;-71
2022/08/18 07:33:51;;;;;;;24.13;17.25;;;;;;;;;;5054479;28;20021;-69
2022/08/18 07:36:20;;;;;;;24.23;17.20;;;;;;;;;;5054441;28;20033;-70
2022/08/18 07:38:50;;;;;;;24.42;17.13;;;;;;;;;;5054409;28;20112;-71
2022/08/18 07:41:24;;;;;;;23.08;17.65;;;;;;;;;;5054738;28;20025;-70
2022/08/18 07:43:51;;;;;;;22.73;16.23;;;;;;;;;;5054438;28;20477;-70
2022/08/18 07:46:27;;;;;;;24.02;17.27;;;;;;;;;;5054234;28;20040;-71
2022/08/18 07:48:53;;;;;;;25.73;17.15;;;;;;;;;;5054820;28;20485;-68
2022/08/18 07:51:54;;;;;;;24.63;16.75;;;;;;;;;;5054213;28;20066;-70
2022/08/18 07:54:23;;;;;;;20.67;15.85;;;;;;;;;;4999352;28;20042;-70
2022/08/18 07:56:56;;;;;;;24.73;16.67;;;;;;;;;;5066461;28;20032;-70
2022/08/18 07:59:40;;;;;;;23.13;16.95;;;;;;;;;;5074588;28;20056;-69
2022/08/18 08:02:22;;;;;;;25.65;17.38;;;;;;;;;;5073143;28;20496;-71
2022/08/18 08:04:48;;;;;;;25.85;17.60;;;;;;;;;;5073799;28;20028;-70
2022/08/18 08:07:15;;;;;;;29.08;17.33;;;;;;;;;;5073809;28;20381;-69
2022/08/18 08:09:41;;;;;;;23.48;17.58;;;;;;;;;;5072541;28;20052;-69
2022/08/18 08:12:26;;;;;;;28.38;18.13;;;;;;;;;;5073755;28;20059;-70
2022/08/18 08:15:07;;;;;;;23.20;16.83;;;;;;;;;;5072443;28;20028;-71
2022/08/18 08:17:40;;;;;;;22.55;16.17;;;;;;;;;;5073718;28;20029;-73
2022/08/18 08:20:18;;;;;;;24.15;15.68;;;;;;;;;;5073848;28;20078;-69
2022/08/18 08:22:59;;;;;;;24.50;16.13;;;;;;;;;;5074206;28;20523;-69
2022/08/18 08:25:26;;;;;;;24.23;16.20;;;;;;;;;;5073520;28;20028;-71
2022/08/18 08:27:52;;;;;;;24.77;15.82;;;;;;;;;;5073498;28;20035;-72
2022/08/18 08:30:20;;;;;;;20.60;14.85;;;;;;;;;;5073781;28;20024;-69
2022/08/18 08:32:46;;;;;;;25.35;16.83;;;;;;;;;;5073442;28;20032;-69
2022/08/18 08:35:14;;;;;;;22.83;15.65;;;;;;;;;;5073378;28;20028;-70
2022/08/18 08:38:02;;;;;;;26.20;15.57;;;;;;;;;;5073685;28;20031;-70
2022/08/18 08:40:32;;;;;;;25.00;15.57;;;;;;;;;;5072076;28;20488;-70
2022/08/18 08:42:59;;;;;;;23.63;15.07;;;;;;;;;;5073662;28;20496;-72
2022/08/18 08:45:30;;;;;;;19.77;13.85;;;;;;;;;;5073557;28;20032;-72
2022/08/18 08:48:01;;;;;;;22.23;14.60;;;;;;;;;;5073780;28;20024;-69
2022/08/18 08:50:30;;;;;;;17.75;12.88;;;;;;;;;;5073531;28;20044;-69
2022/08/18 08:53:18;;;;;;;19.15;13.60;;;;;;;;;;5073259;28;20533;-72
2022/08/18 08:55:47;;;;;;;18.25;13.68;;;;;;;;;;5058168;28;20067;-68
2022/08/18 08:58:28;;;;;;;18.95;13.82;;;;;;;;;;5053105;28;20025;-70
2022/08/18 09:00:55;;;;;;;17.33;13.60;;;;;;;;;;5053152;28;20021;-69
2022/08/18 09:03:45;;;;;;;21.73;14.15;;;;;;;;;;5053384;28;20029;-70
2022/08/18 09:06:19;;;;;;;21.15;14.23;;;;;;;;;;5053319;28;20025;-73
2022/08/18 09:09:05;;;;;;;19.88;14.02;;;;;;;;;;5053019;28;20025;-71
2022/08/18 09:11:48;;;;;;;18.50;14.40;;;;;;;;;;5053599;28;20025;-70
2022/08/18 09:14:32;;;;;;;17.50;14.15;;;;;;;;;;5055254;28;20079;-70
2022/08/18 09:17:13;;;;;;;18.40;14.10;;;;;;;;;;5057611;28;20032;-71
2022/08/18 09:19:55;;;;;;;22.17;15.13;;;;;;;;;;5057654;28;20025;-70
2022/08/18 09:22:39;;;;;;;18.15;13.75;;;;;;;;;;5056983;28;20066;-71
2022/08/18 09:25:28;;;;;;;23.88;14.75;;;;;;;;;;5057385;28;20067;-71
2022/08/18 09:28:07;;;;;;;23.00;13.07;;;;;;;;;;5039572;28;20025;-69
2022/08/18 09:30:42;;;;;;;45.72;16.55;;;;;;;;;;5057211;28;20052;-71
2022/08/18 09:33:32;;;;;;;18.08;14.25;;;;;;;;;;5056788;28;20051;-71
2022/08/18 09:36:07;;;;;;;19.35;13.18;;;;;;;;;;5057152;28;20366;-72
2022/08/18 09:41:32;;;;;;;17.73;12.73;;;;;;;;;;5057251;28;20488;-70
2022/08/18 09:44:09;;;;;;;17.23;12.73;;;;;;;;;;5038406;28;20404;-72
2022/08/18 09:46:46;;;;;;;16.35;11.32;;;;;;;;;;5057072;28;20021;-70
2022/08/18 09:49:24;;;;;;;14.77;10.35;;;;;;;;;;5057049;28;20528;-72
2022/08/18 09:51:52;;;;;;;16.38;10.60;;;;;;;;;;5038653;28;20447;-71
2022/08/18 09:54:19;;;;;;;18.05;11.27;;;;;;;;;;5056427;28;20114;-71
2022/08/18 09:56:52;;;;;;;17.92;11.57;;;;;;;;;;5056401;28;20036;-70
2022/08/18 09:59:35;;;;;;;16.90;11.35;;;;;;;;;;5038426;28;20512;-70
2022/08/18 10:02:05;;;;;;;17.48;11.45;;;;;;;;;;5056769;28;20111;-71
2022/08/18 10:04:31;;;;;;;;;;;;;;;;;;5056811;28;20413;-70
2022/08/18 10:07:32;;;;;;;15.88;12.30;;;;;;;;;;5056172;28;19905;-68
2022/08/18 10:09:58;;;;;;;15.23;11.15;;;;;;;;;;4994790;28;20514;-73
2022/08/18 10:12:57;;;;;;;15.93;10.18;;;;;;;;;;5043671;28;20481;-69
2022/08/18 10:15:31;;;;;;;14.38;10.13;;;;;;;;;;5022745;28;20500;-71
2022/08/18 10:18:02;;;;;;;14.55;9.02;;;;;;;;;;5055972;28;20393;-72
2022/08/18 10:20:41;;;;;;;13.95;9.65;;;;;;;;;;5056233;28;20382;-69
2022/08/18 10:23:08;;;;;;;12.95;9.18;;;;;;;;;;5056184;28;20418;-70
2022/08/18 10:25:41;;;;;;;15.98;9.63;;;;;;;;;;5054981;28;20057;-69
2022/08/18 10:28:09;;;;;;;17.33;9.13;;;;;;;;;;5056327;28;20052;-72
2022/08/18 10:30:36;;;;;;;15.02;9.77;;;;;;;;;;5056020;28;20451;-71
2022/08/18 10:33:04;;;;;;;13.27;9.63;;;;;;;;;;5055732;28;20101;-70
2022/08/18 10:35:35;;;;;;;14.48;10.23;;;;;;;;;;5055616;28;20028;-72
2022/08/18 10:38:04;;;;;;;12.85;8.80;;;;;;;;;;5055597;28;20022;-69
2022/08/18 10:40:31;;;;;;;14.55;9.88;;;;;;;;;;5055591;28;20036;-71
2022/08/18 10:42:57;;;;;;;12.55;8.68;;;;;;;;;;5055496;28;20025;-70
2022/08/18 10:45:37;;;;;;;13.52;7.78;;;;;;;;;;5037433;28;20079;-72
2022/08/18 10:48:21;;;;;;;14.70;7.78;;;;;;;;;;5056208;28;20021;-70
2022/08/18 10:50:52;;;;;;;10.70;6.60;;;;;;;;;;5055351;28;20025;-70
2022/08/18 10:53:21;;;;;;;9.15;6.53;;;;;;;;;;5055264;28;20044;-70
2022/08/18 10:55:50;;;;;;;9.77;6.97;;;;;;;;;;5055266;28;20056;-71
2022/08/18 10:58:22;;;;;;;11.57;6.83;;;;;;;;;;5055299;28;20033;-70
2022/08/18 11:01:06;;;;;;;11.13;7.30;;;;;;;;;;5055138;28;20032;-71
2022/08/18 11:03:39;;;;;;;14.30;9.68;;;;;;;;;;5055402;28;20506;-72
2022/08/18 11:06:07;;;;;;;13.70;8.20;;;;;;;;;;5055571;28;20028;-70
2022/08/18 11:08:38;;;;;;;15.43;9.30;;;;;;;;;;5055303;28;20393;-73
2022/08/18 11:11:09;;;;;;;14.50;8.73;;;;;;;;;;5054982;28;20018;-71
2022/08/18 11:13:53;;;;;;;15.82;8.35;;;;;;;;;;5054915;28;20028;-68
2022/08/18 11:16:28;;;;;;;16.30;9.27;;;;;;;;;;5055419;28;20051;-72
2022/08/18 11:19:03;;;;;;;13.65;9.27;;;;;;;;;;5054820;28;20033;-70
2022/08/18 11:21:35;;;;;;;12.40;8.70;;;;;;;;;;5036698;28;20025;-71
2022/08/18 11:24:22;;;;;;;14.00;7.75;;;;;;;;;;5055245;28;20496;-69
2022/08/18 11:26:49;;;;;;;14.73;9.32;;;;;;;;;;5036886;28;20029;-70
2022/08/18 11:29:23;;;;;;;12.38;8.60;;;;;;;;;;5036786;28;20025;-71
2022/08/18 11:31:50;;;;;;;11.82;8.48;;;;;;;;;;5054890;28;20029;-73
2022/08/18 11:34:18;;;;;;;13.15;9.10;;;;;;;;;;5054812;28;20029;-71
2022/08/18 11:36:56;;;;;;;15.90;9.13;;;;;;;;;;5054049;28;20017;-72
2022/08/18 11:39:22;;;;;;;18.25;9.80;;;;;;;;;;5054579;28;20032;-72
2022/08/18 11:41:49;;;;;;;16.92;9.15;;;;;;;;;;5054410;28;20017;-69
2022/08/18 11:44:19;;;;;;;15.88;9.43;;;;;;;;;;5054413;28;20428;-69
2022/08/18 11:46:45;;;;;;;11.48;7.82;;;;;;;;;;5054526;28;20029;-71
2022/08/18 11:49:18;;;;;;;11.10;7.47;;;;;;;;;;5055041;28;20083;-69
2022/08/18 11:51:55;;;;;;;12.18;8.20;;;;;;;;;;5054710;28;20044;-70
2022/08/18 11:54:22;;;;;;;11.43;7.63;;;;;;;;;;5054184;28;20494;-70
2022/08/18 11:56:48;;;;;;;14.07;8.27;;;;;;;;;;5054127;28;20398;-70
2022/08/18 11:59:35;;;;;;;11.75;7.63;;;;;;;;;;5054031;28;20021;-70
2022/08/18 12:02:01;;;;;;;12.55;8.80;;;;;;;;;;5053866;28;20021;-67
2022/08/18 12:04:32;;;;;;;10.75;6.95;;;;;;;;;;5053913;28;20079;-67
2022/08/18 12:07:07;;;;;;;12.68;7.35;;;;;;;;;;5054093;28;20021;-68
2022/08/18 12:09:36;;;;;;;12.10;7.95;;;;;;;;;;5054404;28;20035;-72
2022/08/18 12:12:02;;;;;;;10.52;7.05;;;;;;;;;;5054067;28;20028;-72
2022/08/18 12:14:30;;;;;;;13.50;7.35;;;;;;;;;;5053770;28;20025;-71
2022/08/18 12:16:56;;;;;;;9.10;6.18;;;;;;;;;;5053847;28;20020;-77
2022/08/18 12:19:23;;;;;;;9.35;6.35;;;;;;;;;;5035847;28;20025;-77
2022/08/18 12:21:49;;;;;;;10.70;5.90;;;;;;;;;;5053813;28;20358;-75
2022/08/18 12:24:26;;;;;;;13.32;6.47;;;;;;;;;;5053818;28;20040;-79
2022/08/18 12:26:52;;;;;;;11.75;6.65;;;;;;;;;;5053556;28;20029;-77
2022/08/18 12:29:19;;;;;;;12.90;7.38;;;;;;;;;;5053818;28;20028;-75
2022/08/18 12:31:45;;;;;;;10.50;6.80;;;;;;;;;;5035867;28;20031;-77
2022/08/18 12:34:11;;;;;;;11.52;6.47;;;;;;;;;;5053458;28;20020;-74
2022/08/18 12:36:37;;;;;;;11.82;6.35;;;;;;;;;;5053388;28;20024;-83
2022/08/18 12:39:04;;;;;;;14.20;8.35;;;;;;;;;;5053446;28;20025;-79
2022/08/18 12:41:30;;;;;;;9.48;5.95;;;;;;;;;;5053378;28;20032;-78
2022/08/18 12:43:56;;;;;;;8.95;5.85;;;;;;;;;;5053861;28;20524;-80
2022/08/18 12:46:22;;;;;;;9.52;5.80;;;;;;;;;;5053259;28;20068;-76
2022/08/18 12:48:49;;;;;;;9.75;6.28;;;;;;;;;;5035897;28;20021;-78
2022/08/18 12:51:16;;;;;;;9.32;4.90;;;;;;;;;;5053371;28;20017;-69
2022/08/18 12:53:42;;;;;;;7.68;5.38;;;;;;;;;;5053582;28;20100;-74
2022/08/18 12:56:15;;;;;;;8.50;5.00;;;;;;;;;;5052839;28;20059;-73
2022/08/18 12:58:41;;;;;;;8.70;4.53;;;;;;;;;;5053199;28;20515;-68
2022/08/18 13:01:07;;;;;;;8.02;4.57;;;;;;;;;;5053076;28;20116;-74
2022/08/18 13:03:33;;;;;;;8.55;5.25;;;;;;;;;;5053372;28;20120;-76
2022/08/18 13:05:59;;;;;;;8.40;4.68;;;;;;;;;;5053287;28;20064;-74
2022/08/18 13:08:25;;;;;;;7.88;5.57;;;;;;;;;;5053300;28;20186;-73
2022/08/18 13:10:51;;;;;;;10.50;5.90;;;;;;;;;;5053042;28;20485;-70
2022/08/18 13:13:18;;;;;;;9.73;5.45;;;;;;;;;;5052921;28;20078;-73
2022/08/18 13:15:45;;;;;;;9.70;5.30;;;;;;;;;;5035020;28;20559;-76
2022/08/18 13:18:11;;;;;;;9.93;5.78;;;;;;;;;;5035090;28;20028;-75
2022/08/18 13:20:38;;;;;;;9.55;5.47;;;;;;;;;;5053078;28;20036;-72
2022/08/18 13:23:04;;;;;;;10.77;6.15;;;;;;;;;;5053147;28;20017;-73
2022/08/18 13:25:30;;;;;;;8.63;5.22;;;;;;;;;;5052835;28;20029;-74
2022/08/18 13:27:56;;;;;;;11.07;6.18;;;;;;;;;;5035039;28;20456;-73
2022/08/18 13:30:23;;;;;;;9.63;5.93;;;;;;;;;;5052885;28;20025;-70
2022/08/18 13:32:50;;;;;;;8.95;5.47;;;;;;;;;;5052647;28;20021;-75
2022/08/18 13:35:16;;;;;;;10.35;5.85;;;;;;;;;;5034891;28;20035;-81
2022/08/18 13:37:42;;;;;;;9.77;5.47;;;;;;;;;;5034870;28;20029;-78
2022/08/18 13:40:09;;;;;;;9.55;5.30;;;;;;;;;;5052064;28;20059;-71
2022/08/18 13:43:02;;;;;;;9.88;6.30;;;;;;;;;;5050865;28;20501;-75
2022/08/18 13:45:29;;;;;;;9.68;5.20;;;;;;;;;;5031107;28;20129;-70
2022/08/18 13:47:55;;;;;;;9.32;5.55;;;;;;;;;;5052527;28;20021;-75
2022/08/18 13:50:21;;;;;;;9.63;5.70;;;;;;;;;;5051489;28;20056;-75
2022/08/18 13:52:49;;;;;;;9.50;6.25;;;;;;;;;;5034154;28;20057;-80
2022/08/18 13:55:16;;;;;;;10.82;5.57;;;;;;;;;;5052520;28;20055;-76
2022/08/18 13:57:51;;;;;;;9.30;5.45;;;;;;;;;;5072397;28;20027;-77
2022/08/18 14:00:19;;;;;;;6.65;4.70;;;;;;;;;;5071321;28;20036;-80
2022/08/18 14:02:52;;;;;;;7.43;5.00;;;;;;;;;;5076458;28;20025;-76
2022/08/18 14:05:18;;;;;;;9.00;5.65;;;;;;;;;;5076686;28;20070;-78
2022/08/18 14:07:44;;;;;;;8.82;5.53;;;;;;;;;;5076363;28;20021;-77
2022/08/18 14:10:12;;;;;;;8.82;5.40;;;;;;;;;;5076034;28;20027;-78
2022/08/18 14:12:38;;;;;;;14.57;6.80;;;;;;;;;;5076014;28;20023;-74
2022/08/18 14:15:06;;;;;;;9.27;5.20;;;;;;;;;;5076597;28;20104;-71
2022/08/18 14:17:32;;;;;;;9.93;5.65;;;;;;;;;;5074626;28;20020;-74
2022/08/18 14:28:17;;;;;;;12.00;5.65;;;;;;;;;;5075363;28;20032;-75
2022/08/18 14:30:43;;;;;;;8.52;5.03;;;;;;;;;;5074412;28;20036;-78
2022/08/18 14:33:09;;;;;;;7.38;5.57;;;;;;;;;;5075923;28;20021;-75
2022/08/18 14:35:36;;;;;;;9.15;5.93;;;;;;;;;;5075727;28;20028;-74
2022/08/18 14:38:03;;;;;;;10.38;6.05;;;;;;;;;;5074305;28;20548;-73
2022/08/18 14:40:32;;;;;;;11.80;5.57;;;;;;;;;;5074367;28;20416;-68
2022/08/18 14:42:58;;;;;;;9.52;5.80;;;;;;;;;;5075279;28;20075;-69
2022/08/18 14:45:24;;;;;;;7.95;5.55;;;;;;;;;;5075885;28;20032;-70
2022/08/18 14:47:54;;;;;;;10.25;5.72;;;;;;;;;;5074293;28;20043;-67
2022/08/18 14:50:21;;;;;;;8.32;5.30;;;;;;;;;;5075403;28;20021;-70
2022/08/18 14:52:48;;;;;;;11.70;6.03;;;;;;;;;;5075701;28;20021;-68
2022/08/18 14:55:15;;;;;;;10.27;5.80;;;;;;;;;;5064398;28;20045;-74
2022/08/18 14:57:41;;;;;;;9.32;5.28;;;;;;;;;;5055237;28;20063;-73
2022/08/18 15:00:12;;;;;;;9.57;6.18;;;;;;;;;;5055124;28;20029;-81
2022/08/18 15:02:38;;;;;;;10.27;5.20;;;;;;;;;;5037164;28;20032;-76